KFFA

First Flight Airport

Kill Devil Hills, North Carolina, USA
METAR KFFA 180240Z AUTO 00000KT 10SM OVC070 07/03 A3021 RMK AO2 T00710025
Observed Flight Rules
Dec-18 @ 02:40 UTC (33 minutes ago) Visual Flight Rules
Wind Visibility Clouds
Calm 10 miles
  • Overcast at 7,000' AGL
Temperatures Readings
Current 7°C / 45°F
Dewpoint 3°C / 37°F
Humidity 76%
Altimeter 30.21" Hg
Pressure 1023 hPa
Elevation 4
METAR KFFA 180240Z AUTO 00000KT 10SM OVC070 07/03 A3021 RMK AO2 T00710025
Observed Flight Rules
Dec-18 @ 02:40 UTC
(33 minutes ago)
VFR
Wind Visibility
Calm 10 miles
Clouds
  • Overcast at 7,000' AGL
Temperature Dewpoint
7°C / 45°F 3°C / 37°F
Humidity Altimeter Pressure
76% 30.21" Hg 1023 hPa